createdAt,value
2018-07-15T00:01:00.808Z,91.60
2018-07-15T00:03:29.281Z,91.80
2018-07-15T00:05:57.832Z,91.90
2018-07-15T00:08:26.283Z,92.00
2018-07-15T00:10:54.722Z,92.10
2018-07-15T00:13:23.240Z,92.50
2018-07-15T00:15:51.673Z,92.70
2018-07-15T00:18:20.264Z,92.60
2018-07-15T00:20:48.803Z,92.50
2018-07-15T00:23:17.262Z,92.30
2018-07-15T00:25:45.822Z,92.40
2018-07-15T00:28:14.313Z,92.60
2018-07-15T00:30:42.789Z,92.70
2018-07-15T00:33:11.332Z,92.60
2018-07-15T00:35:39.786Z,92.80
2018-07-15T00:38:08.314Z,92.90
2018-07-15T00:40:36.752Z,93.20
2018-07-15T00:43:05.330Z,93.30
2018-07-15T00:45:33.804Z,93.40
2018-07-15T00:48:02.321Z,93.30
2018-07-15T00:50:30.872Z,93.20
2018-07-15T00:52:59.450Z,93.20
2018-07-15T00:55:27.874Z,93.30
2018-07-15T00:57:56.361Z,93.30
2018-07-15T01:00:30.146Z,93.40
2018-07-15T01:02:58.651Z,93.70
2018-07-15T01:05:27.170Z,93.80
2018-07-15T01:07:55.710Z,93.70
2018-07-15T01:12:52.394Z,93.50
2018-07-15T01:15:20.898Z,93.70
2018-07-15T01:17:49.539Z,94.40
2018-07-15T01:20:18.031Z,94.20
2018-07-15T01:22:47.435Z,94.20
2018-07-15T01:25:16.014Z,94.20
2018-07-15T01:27:44.612Z,94.00
2018-07-15T01:30:13.160Z,93.90
2018-07-15T01:32:41.674Z,93.80
2018-07-15T01:35:10.733Z,93.70
2018-07-15T01:37:39.190Z,93.60
2018-07-15T01:40:07.714Z,93.80
2018-07-15T01:42:36.133Z,93.90
2018-07-15T01:45:04.610Z,93.90
2018-07-15T01:47:33.097Z,94.30
2018-07-15T01:50:01.535Z,94.70
2018-07-15T01:52:29.942Z,95.30
2018-07-15T01:54:58.458Z,95.70
2018-07-15T01:57:26.982Z,96.10
2018-07-15T01:59:55.466Z,96.20
2018-07-15T02:02:24.040Z,96.30
2018-07-15T02:04:52.889Z,96.20
2018-07-15T02:07:21.354Z,96.00
2018-07-15T02:09:49.834Z,95.80
2018-07-15T02:12:18.412Z,95.60
2018-07-15T02:17:15.579Z,95.60
2018-07-15T02:19:44.258Z,95.60
2018-07-15T02:22:12.748Z,95.40
2018-07-15T02:24:41.266Z,95.60
2018-07-15T02:27:09.691Z,95.50
2018-07-15T02:29:38.150Z,95.30
2018-07-15T02:32:06.846Z,95.40
2018-07-15T02:34:35.354Z,95.60
2018-07-15T02:37:03.875Z,96.00
2018-07-15T02:39:32.424Z,96.10
2018-07-15T02:42:00.868Z,95.90
2018-07-15T02:44:29.306Z,95.70
2018-07-15T02:46:57.847Z,95.60
2018-07-15T02:49:26.330Z,95.70
2018-07-15T02:51:54.870Z,95.60
2018-07-15T02:54:23.374Z,95.80
2018-07-15T02:56:51.814Z,96.00
2018-07-15T02:59:20.286Z,96.20
2018-07-15T03:01:48.787Z,96.20
2018-07-15T03:04:17.255Z,97.00
2018-07-15T03:06:45.715Z,97.20
2018-07-15T03:09:14.402Z,97.10
2018-07-15T03:11:42.841Z,97.30
2018-07-15T03:14:11.298Z,97.50
2018-07-15T03:16:40.614Z,97.50
2018-07-15T03:19:09.079Z,97.50
2018-07-15T03:21:37.538Z,97.60
2018-07-15T03:24:06.035Z,97.70
2018-07-15T03:26:34.967Z,97.90
2018-07-15T03:29:03.878Z,98.10
2018-07-15T03:31:32.678Z,98.20
2018-07-15T03:34:01.247Z,98.10
2018-07-15T03:36:29.773Z,98.10
2018-07-15T03:38:58.343Z,98.40
2018-07-15T03:41:26.898Z,98.70
2018-07-15T03:43:55.454Z,98.90
2018-07-15T03:46:23.953Z,99.10
2018-07-15T03:48:52.393Z,99.20
2018-07-15T03:51:20.862Z,99.10
2018-07-15T03:53:49.399Z,98.80
2018-07-15T03:56:18.278Z,98.50
2018-07-15T03:58:46.725Z,98.20
2018-07-15T04:01:15.231Z,97.80
2018-07-15T04:03:43.689Z,97.50
2018-07-15T04:06:12.152Z,97.20
2018-07-15T04:08:40.806Z,96.90
2018-07-15T04:11:09.215Z,96.70
2018-07-15T04:13:37.651Z,96.40
2018-07-15T04:16:06.146Z,96.00
2018-07-15T04:18:34.646Z,95.60
2018-07-15T04:25:59.455Z,94.80
2018-07-15T04:28:27.993Z,94.70
2018-07-15T04:30:56.700Z,94.60
2018-07-15T04:33:26.007Z,94.90
2018-07-15T04:35:54.436Z,94.90
2018-07-15T04:38:23.010Z,94.80
2018-07-15T04:40:51.537Z,94.60
2018-07-15T04:43:19.987Z,94.30
2018-07-15T04:45:48.536Z,94.20
2018-07-15T04:48:17.061Z,93.80
2018-07-15T04:50:46.050Z,93.40
2018-07-15T04:53:14.524Z,93.10
2018-07-15T04:55:42.994Z,93.00
2018-07-15T04:58:11.462Z,92.70
2018-07-15T05:00:40.054Z,91.90
2018-07-15T05:03:08.654Z,91.40
2018-07-15T05:05:37.217Z,91.10
2018-07-15T05:08:05.934Z,90.10
2018-07-15T05:10:34.419Z,90.20
2018-07-15T05:15:31.166Z,89.20
2018-07-15T05:17:59.774Z,88.10
2018-07-15T05:20:28.247Z,87.90
2018-07-15T05:22:56.953Z,87.80
2018-07-15T05:25:25.558Z,86.20
2018-07-15T05:27:54.006Z,86.00
2018-07-15T05:30:22.637Z,85.60
2018-07-15T05:32:51.194Z,85.60
2018-07-15T05:35:23.535Z,85.30
2018-07-15T05:37:51.993Z,85.30
2018-07-15T05:40:20.654Z,85.30
2018-07-15T05:42:49.175Z,84.60
2018-07-15T05:45:17.647Z,84.10
2018-07-15T05:47:46.159Z,83.50
2018-07-15T05:50:14.878Z,83.60
2018-07-15T05:52:43.327Z,83.80
2018-07-15T05:55:11.867Z,83.30
2018-07-15T05:57:40.382Z,82.60
2018-07-15T06:00:08.943Z,81.60
2018-07-15T06:02:37.380Z,80.90
2018-07-15T06:05:05.954Z,81.10
2018-07-15T06:07:34.394Z,81.40
2018-07-15T06:10:02.836Z,80.50
2018-07-15T06:12:31.554Z,80.30
2018-07-15T06:15:00.167Z,80.40
2018-07-15T06:17:29.245Z,80.80
2018-07-15T06:19:57.797Z,79.90
2018-07-15T06:24:54.506Z,77.60
2018-07-15T06:27:23.074Z,77.90
2018-07-15T06:29:51.635Z,78.80
2018-07-15T06:32:20.187Z,77.60
2018-07-15T06:34:48.773Z,78.20
2018-07-15T06:37:17.698Z,76.50
2018-07-15T06:39:46.152Z,76.50
2018-07-15T06:42:15.286Z,75.70
2018-07-15T06:44:43.787Z,75.00
2018-07-15T06:47:12.226Z,75.10
2018-07-15T06:49:40.750Z,74.00
2018-07-15T06:52:09.182Z,73.80
2018-07-15T06:54:37.615Z,73.50
2018-07-15T06:57:06.123Z,73.20
2018-07-15T06:59:34.818Z,71.50
2018-07-15T07:02:03.329Z,71.50
2018-07-15T07:04:32.088Z,71.10
2018-07-15T07:07:00.644Z,71.10
2018-07-15T07:09:29.159Z,70.70
2018-07-15T07:11:57.786Z,70.80
2018-07-15T07:16:55.234Z,70.00
2018-07-15T07:19:23.965Z,69.70
2018-07-15T07:21:52.533Z,70.00
2018-07-15T07:26:49.250Z,69.40
2018-07-15T07:29:17.688Z,69.40
2018-07-15T07:31:46.325Z,69.00
2018-07-15T07:34:14.912Z,68.60
2018-07-15T07:36:43.518Z,68.90
2018-07-15T07:39:12.294Z,69.20
2018-07-15T07:41:41.019Z,67.60
2018-07-15T07:46:38.066Z,68.60
2018-07-15T07:51:34.791Z,68.80
2018-07-15T07:54:03.329Z,68.60
2018-07-15T07:59:00.202Z,68.50
2018-07-15T08:01:28.646Z,67.70
2018-07-15T08:03:57.283Z,67.80
2018-07-15T08:06:25.828Z,68.10
2018-07-15T08:08:54.522Z,67.90
2018-07-15T08:11:23.002Z,67.20
2018-07-15T08:13:51.584Z,67.70
2018-07-15T08:16:20.075Z,65.70
2018-07-15T08:18:49.831Z,67.30
2018-07-15T08:21:18.524Z,68.00
2018-07-15T08:23:46.984Z,69.00
2018-07-15T08:26:15.606Z,69.00
2018-07-15T08:28:44.134Z,69.40
2018-07-15T08:31:16.395Z,69.00
2018-07-15T08:33:44.868Z,68.00
2018-07-15T08:36:13.539Z,67.60
2018-07-15T08:38:42.636Z,67.60
2018-07-15T08:41:11.206Z,67.30
2018-07-15T08:43:39.883Z,66.80
2018-07-15T08:47:37.822Z,66.40
2018-07-15T08:50:06.269Z,65.80
2018-07-15T08:52:34.782Z,65.40
2018-07-15T08:55:03.469Z,65.00
2018-07-15T08:57:32.006Z,65.80
2018-07-15T09:00:00.586Z,66.30
2018-07-15T09:02:29.286Z,66.50
2018-07-15T09:04:58.590Z,66.00
2018-07-15T09:07:27.178Z,64.50
2018-07-15T09:09:55.682Z,61.10
2018-07-15T09:12:24.317Z,60.40
2018-07-15T09:14:52.773Z,60.00
2018-07-15T09:17:21.234Z,60.00
2018-07-15T09:19:49.894Z,59.60
2018-07-15T09:22:18.620Z,59.70
2018-07-15T09:24:47.310Z,59.80
2018-07-15T09:27:15.864Z,59.60
2018-07-15T09:29:44.531Z,58.50
2018-07-15T09:32:13.150Z,58.90
2018-07-15T09:34:41.620Z,59.40
2018-07-15T09:37:10.176Z,59.70
2018-07-15T09:39:38.703Z,61.30
2018-07-15T09:42:07.170Z,60.50
2018-07-15T09:44:35.747Z,61.20
2018-07-15T09:47:04.247Z,59.80
2018-07-15T09:49:32.838Z,60.10
2018-07-15T09:52:01.412Z,60.00
2018-07-15T09:54:29.907Z,62.10
2018-07-15T09:57:04.672Z,63.70
2018-07-15T09:59:33.383Z,61.30
2018-07-15T10:02:02.040Z,61.30
2018-07-15T10:04:30.610Z,62.00
2018-07-15T10:06:59.125Z,62.50
2018-07-15T10:09:27.559Z,60.20
2018-07-15T10:11:55.982Z,60.20
2018-07-15T10:16:52.795Z,61.50
2018-07-15T10:19:21.328Z,59.40
2018-07-15T10:21:49.762Z,61.80
2018-07-15T10:24:18.219Z,60.10
2018-07-15T10:26:47.246Z,58.90
2018-07-15T10:29:15.838Z,59.70
2018-07-15T10:31:44.385Z,59.90
2018-07-15T10:34:12.818Z,59.80
2018-07-15T10:36:41.606Z,59.50
2018-07-15T10:39:11.026Z,59.50
2018-07-15T10:41:39.730Z,58.30
2018-07-15T10:44:08.317Z,57.20
2018-07-15T10:46:36.811Z,57.80
2018-07-15T10:49:05.338Z,58.90
2018-07-15T10:51:33.999Z,58.60
2018-07-15T10:54:02.534Z,59.80
2018-07-15T10:56:31.210Z,57.10
2018-07-15T10:58:59.776Z,58.30
2018-07-15T11:01:29.930Z,58.80
2018-07-15T11:03:58.454Z,60.30
2018-07-15T11:06:27.253Z,60.20
2018-07-15T11:08:55.754Z,60.00
2018-07-15T11:11:25.983Z,58.10
2018-07-15T11:13:55.299Z,59.90
2018-07-15T11:16:23.829Z,57.70
2018-07-15T11:18:52.544Z,62.30
2018-07-15T11:21:21.126Z,61.10
2018-07-15T11:23:49.721Z,59.50
2018-07-15T11:26:18.422Z,58.00
2018-07-15T11:28:46.994Z,57.70
2018-07-15T11:31:16.204Z,57.10
2018-07-15T11:33:44.658Z,56.00
2018-07-15T11:36:13.227Z,58.20
2018-07-15T11:38:41.914Z,57.40
2018-07-15T11:41:10.361Z,56.60
2018-07-15T11:43:38.906Z,57.90
2018-07-15T11:46:07.456Z,57.70
2018-07-15T11:48:35.919Z,58.40
2018-07-15T11:51:04.456Z,58.70
2018-07-15T11:53:33.201Z,58.00
2018-07-15T11:56:01.886Z,59.60
2018-07-15T11:58:30.466Z,59.60
2018-07-15T12:00:58.917Z,60.10
2018-07-15T12:03:27.475Z,59.60
2018-07-15T12:05:56.053Z,57.50
2018-07-15T12:08:24.743Z,59.10
2018-07-15T12:10:53.369Z,58.00
2018-07-15T12:13:22.331Z,59.10
2018-07-15T12:15:50.781Z,59.40
2018-07-15T12:18:19.326Z,61.60
2018-07-15T12:20:47.994Z,58.30
2018-07-15T12:23:16.617Z,59.50
2018-07-15T12:25:45.106Z,58.80
2018-07-15T12:28:13.854Z,59.00
2018-07-15T12:30:42.393Z,59.30
2018-07-15T12:33:10.845Z,58.70
2018-07-15T12:35:45.098Z,56.10
2018-07-15T12:40:41.909Z,58.50
2018-07-15T12:43:10.523Z,58.90
2018-07-15T12:45:38.963Z,58.30
2018-07-15T12:48:07.634Z,57.00
2018-07-15T12:50:36.245Z,59.70
2018-07-15T12:53:04.829Z,61.30
2018-07-15T12:55:33.290Z,58.60
2018-07-15T12:58:01.937Z,58.50
2018-07-15T13:00:30.498Z,58.20
2018-07-15T13:02:59.125Z,57.40
2018-07-15T13:05:27.672Z,57.20
2018-07-15T13:07:56.145Z,57.90
2018-07-15T13:10:24.609Z,58.30
2018-07-15T13:12:53.178Z,59.60
2018-07-15T13:15:21.635Z,57.00
2018-07-15T13:17:50.110Z,56.40
2018-07-15T13:20:18.642Z,56.10
2018-07-15T13:22:47.854Z,56.40
2018-07-15T13:25:16.384Z,55.70
2018-07-15T13:27:45.735Z,55.00
2018-07-15T13:30:14.233Z,56.10
2018-07-15T13:32:42.910Z,56.20
2018-07-15T13:35:11.395Z,56.50
2018-07-15T13:37:40.023Z,55.80
2018-07-15T13:40:08.714Z,54.70
2018-07-15T13:42:37.230Z,53.60
2018-07-15T13:45:05.690Z,54.20
2018-07-15T13:47:34.138Z,54.10
2018-07-15T13:50:02.688Z,54.00
2018-07-15T13:52:31.126Z,54.30
2018-07-15T13:55:00.285Z,53.90
2018-07-15T13:57:28.754Z,54.80
2018-07-15T13:59:57.204Z,55.40
2018-07-15T14:02:25.732Z,54.00
2018-07-15T14:04:54.286Z,53.30
2018-07-15T14:07:22.782Z,53.90
2018-07-15T14:09:51.241Z,54.30
2018-07-15T14:14:47.979Z,52.90
2018-07-15T14:17:16.429Z,54.50
2018-07-15T14:19:45.007Z,54.10
2018-07-15T14:22:13.558Z,54.30
2018-07-15T14:24:42.118Z,54.70
2018-07-15T14:27:10.698Z,53.60
2018-07-15T14:29:39.190Z,54.70
2018-07-15T14:32:07.810Z,53.20
2018-07-15T14:34:36.340Z,54.40
2018-07-15T14:37:04.838Z,54.10
2018-07-15T14:39:35.393Z,54.20
2018-07-15T14:42:04.349Z,53.80
2018-07-15T14:44:32.903Z,53.40
2018-07-15T14:47:01.550Z,54.90
2018-07-15T14:49:30.191Z,54.20
2018-07-15T14:51:59.072Z,53.50
2018-07-15T14:54:27.654Z,53.70
2018-07-15T14:56:57.258Z,53.20
2018-07-15T14:59:25.722Z,53.40
2018-07-15T15:01:54.995Z,52.70
2018-07-15T15:04:23.478Z,52.90
2018-07-15T15:06:51.970Z,53.00
2018-07-15T15:09:20.437Z,53.10
2018-07-15T15:11:48.962Z,52.70
2018-07-15T15:14:17.518Z,51.70
2018-07-15T15:16:45.974Z,52.80
2018-07-15T15:19:14.471Z,52.90
2018-07-15T15:21:42.913Z,52.80
2018-07-15T15:24:11.342Z,52.20
2018-07-15T15:26:39.925Z,50.90
2018-07-15T15:29:08.567Z,51.20
2018-07-15T15:31:37.116Z,50.40
2018-07-15T15:34:05.694Z,50.00
2018-07-15T15:38:03.406Z,51.00
2018-07-15T15:40:32.028Z,51.00
2018-07-15T15:43:00.582Z,49.70
2018-07-15T15:45:29.102Z,49.10
2018-07-15T15:47:57.675Z,49.10
2018-07-15T15:50:26.255Z,50.20
2018-07-15T15:52:54.690Z,49.60
2018-07-15T15:55:23.310Z,48.90
2018-07-15T15:57:51.861Z,49.00
2018-07-15T16:00:20.298Z,48.60
2018-07-15T16:02:48.859Z,48.30
2018-07-15T16:05:17.344Z,48.60
2018-07-15T16:07:45.775Z,48.30
2018-07-15T16:10:14.466Z,47.10
2018-07-15T16:12:43.202Z,46.10
2018-07-15T16:15:11.910Z,45.20
2018-07-15T16:17:40.558Z,44.50
2018-07-15T16:20:09.033Z,43.20
2018-07-15T16:25:05.814Z,40.90
2018-07-15T16:27:34.603Z,41.00
2018-07-15T16:32:31.199Z,40.00
2018-07-15T16:34:59.722Z,39.70
2018-07-15T16:37:28.275Z,39.00
2018-07-15T16:39:56.785Z,38.70
2018-07-15T16:42:25.326Z,38.80
2018-07-15T16:44:53.756Z,39.30
2018-07-15T16:47:22.318Z,39.40
2018-07-15T16:49:50.924Z,40.40
2018-07-15T16:52:19.326Z,38.70
2018-07-15T16:54:47.942Z,37.80
2018-07-15T16:57:16.528Z,38.10
2018-07-15T16:59:44.938Z,37.90
2018-07-15T17:02:13.506Z,38.90
2018-07-15T17:04:42.002Z,38.90
2018-07-15T17:07:10.896Z,39.40
2018-07-15T17:09:39.374Z,38.00
2018-07-15T17:12:07.793Z,38.40
2018-07-15T17:17:04.371Z,38.90
2018-07-15T17:19:33.012Z,39.00
2018-07-15T17:22:01.643Z,39.20
2018-07-15T17:24:30.155Z,39.40
2018-07-15T17:26:58.706Z,39.90
2018-07-15T17:29:27.158Z,40.30
2018-07-15T17:31:55.702Z,40.70
2018-07-15T17:34:24.132Z,40.80
2018-07-15T17:36:52.616Z,40.90
2018-07-15T17:39:21.073Z,40.40
2018-07-15T17:41:49.702Z,40.50
2018-07-15T17:44:18.158Z,41.90
2018-07-15T17:46:46.678Z,44.10
2018-07-15T17:51:43.370Z,48.40
2018-07-15T17:54:12.171Z,50.10
2018-07-15T17:56:40.678Z,51.70
2018-07-15T17:59:09.389Z,53.40
2018-07-15T18:01:37.945Z,54.20
2018-07-15T18:04:06.677Z,55.10
2018-07-15T18:06:35.222Z,56.30
2018-07-15T18:09:03.867Z,57.40
2018-07-15T18:11:32.294Z,58.10
2018-07-15T18:14:00.860Z,58.40
2018-07-15T18:16:29.422Z,58.70
2018-07-15T18:18:57.957Z,58.10
2018-07-15T18:21:26.565Z,58.90
2018-07-15T18:23:55.285Z,58.90
2018-07-15T18:26:24.039Z,58.80
2018-07-15T18:28:52.635Z,59.00
2018-07-15T18:31:21.266Z,59.60
2018-07-15T18:33:49.964Z,59.70
2018-07-15T18:36:18.415Z,59.60
2018-07-15T18:38:47.116Z,60.30
2018-07-15T18:41:15.554Z,61.10
2018-07-15T18:43:44.118Z,62.00
2018-07-15T18:46:12.587Z,62.60
2018-07-15T18:48:41.131Z,63.10
2018-07-15T18:51:09.569Z,63.40
2018-07-15T18:53:38.176Z,64.00
2018-07-15T18:56:06.579Z,64.00
2018-07-15T18:58:35.210Z,64.60
2018-07-15T19:01:03.755Z,65.20
2018-07-15T19:03:32.242Z,65.70
2018-07-15T19:06:00.749Z,65.80
2018-07-15T19:08:29.296Z,66.20
2018-07-15T19:10:57.799Z,66.50
2018-07-15T19:13:26.258Z,66.70
2018-07-15T19:15:55.372Z,66.90
2018-07-15T19:18:24.105Z,67.00
2018-07-15T19:20:52.525Z,67.60
2018-07-15T19:23:21.187Z,68.50
2018-07-15T19:25:49.809Z,69.00
2018-07-15T19:28:18.432Z,69.30
2018-07-15T19:30:47.118Z,70.00
2018-07-15T19:33:15.586Z,70.60
2018-07-15T19:35:44.035Z,71.60
2018-07-15T19:38:12.663Z,72.10
2018-07-15T19:40:41.419Z,72.70
2018-07-15T19:43:09.978Z,72.90
2018-07-15T19:45:38.638Z,73.10
2018-07-15T19:48:07.088Z,73.30
2018-07-15T19:50:35.539Z,73.50
2018-07-15T19:53:04.106Z,73.70
2018-07-15T19:55:32.829Z,74.10
2018-07-15T19:58:01.379Z,74.30
2018-07-15T20:00:29.850Z,74.60
2018-07-15T20:02:58.274Z,75.40
2018-07-15T20:05:26.759Z,76.50
2018-07-15T20:07:55.329Z,77.50
2018-07-15T20:10:23.887Z,78.00
2018-07-15T20:12:52.338Z,78.10
2018-07-15T20:15:20.936Z,78.10
2018-07-15T20:17:49.554Z,78.20
2018-07-15T20:20:18.067Z,78.40
2018-07-15T20:22:46.738Z,78.60
2018-07-15T20:25:15.427Z,78.80
2018-07-15T20:27:43.959Z,79.30
2018-07-15T20:30:12.630Z,79.80
2018-07-15T20:32:41.115Z,80.30
2018-07-15T20:35:09.560Z,80.80
2018-07-15T20:40:06.330Z,81.90
2018-07-15T20:42:34.894Z,82.30
2018-07-15T20:45:03.682Z,82.70
2018-07-15T20:47:32.119Z,83.60
2018-07-15T20:50:00.668Z,83.20
2018-07-15T20:52:29.166Z,83.40
2018-07-15T20:54:57.590Z,83.90
2018-07-15T20:57:26.131Z,84.50
2018-07-15T20:59:54.627Z,84.80
2018-07-15T21:02:23.058Z,85.30
2018-07-15T21:04:51.469Z,85.70
2018-07-15T21:07:20.122Z,86.10
2018-07-15T21:09:48.582Z,86.50
2018-07-15T21:12:17.030Z,86.70
2018-07-15T21:14:45.615Z,87.20
2018-07-15T21:17:14.162Z,87.60
2018-07-15T21:19:42.714Z,88.30
2018-07-15T21:22:11.246Z,88.80
2018-07-15T21:24:39.918Z,89.20
2018-07-15T21:27:08.808Z,89.70
2018-07-15T21:29:37.400Z,90.10
2018-07-15T21:32:06.004Z,90.10
2018-07-15T21:34:34.446Z,90.10
2018-07-15T21:37:03.023Z,90.20
2018-07-15T21:39:31.482Z,90.50
2018-07-15T21:41:59.925Z,90.70
2018-07-15T21:44:28.671Z,91.00
2018-07-15T21:46:57.328Z,91.30
2018-07-15T21:49:25.856Z,91.40
2018-07-15T21:51:54.383Z,91.60
2018-07-15T21:54:22.864Z,91.90
2018-07-15T22:01:47.715Z,92.50
2018-07-15T22:04:16.294Z,92.70
2018-07-15T22:06:55.838Z,92.80
2018-07-15T22:09:47.676Z,93.00
2018-07-15T22:12:16.259Z,93.10
2018-07-15T22:14:44.782Z,93.20
2018-07-15T22:17:13.350Z,93.10
2018-07-15T22:19:41.758Z,93.40
2018-07-15T22:22:10.198Z,93.60
2018-07-15T22:24:38.982Z,93.70
2018-07-15T22:27:07.610Z,93.70
2018-07-15T22:29:36.037Z,93.50
2018-07-15T22:32:04.612Z,93.70
2018-07-15T22:37:01.246Z,94.10
2018-07-15T22:39:29.815Z,94.30
2018-07-15T22:41:58.283Z,94.60
2018-07-15T22:44:26.732Z,94.80
2018-07-15T22:46:55.223Z,94.90
2018-07-15T22:49:23.766Z,94.90
2018-07-15T22:51:52.255Z,95.00
2018-07-15T22:54:20.719Z,95.10
2018-07-15T22:56:49.264Z,95.10
2018-07-15T22:59:17.699Z,95.20
2018-07-15T23:01:46.291Z,95.20
2018-07-15T23:04:14.712Z,95.10
2018-07-15T23:06:43.241Z,95.20
2018-07-15T23:09:11.726Z,95.50
2018-07-15T23:11:40.285Z,95.70
2018-07-15T23:14:08.718Z,95.80
2018-07-15T23:16:37.331Z,96.00
2018-07-15T23:19:05.799Z,95.80
2018-07-15T23:21:34.247Z,95.70
2018-07-15T23:24:02.878Z,95.60
2018-07-15T23:26:31.358Z,95.90
2018-07-15T23:28:59.790Z,96.20
2018-07-15T23:31:28.293Z,96.10
2018-07-15T23:33:56.918Z,96.20
2018-07-15T23:36:25.374Z,96.40
2018-07-15T23:38:53.847Z,96.40
2018-07-15T23:41:22.405Z,96.30
2018-07-15T23:43:50.878Z,96.30
2018-07-15T23:46:19.498Z,96.40
2018-07-15T23:48:47.974Z,96.60
2018-07-15T23:51:16.442Z,96.50
2018-07-15T23:53:44.942Z,96.60
2018-07-15T23:56:13.494Z,96.90
2018-07-15T23:58:41.945Z,97.20
